sensor_id;sensor_type;location;lat;lon;timestamp;P1;durP1;ratioP1;P2;durP2;ratioP2
18999;SDS011;9633;50.980;13.850;2022-09-13T00:00:54;9.27;;;8.37;;
18999;SDS011;9633;50.980;13.850;2022-09-13T00:02:29;10.13;;;9.13;;
18999;SDS011;9633;50.980;13.850;2022-09-13T00:04:03;10.03;;;8.80;;
18999;SDS011;9633;50.980;13.850;2022-09-13T00:05:37;11.27;;;10.13;;
18999;SDS011;9633;50.980;13.850;2022-09-13T00:07:09;11.40;;;10.30;;
18999;SDS011;9633;50.980;13.850;2022-09-13T00:08:43;11.93;;;10.60;;
18999;SDS011;9633;50.980;13.850;2022-09-13T00:10:15;10.97;;;9.93;;
18999;SDS011;9633;50.980;13.850;2022-09-13T00:11:50;11.87;;;10.67;;
18999;SDS011;9633;50.980;13.850;2022-09-13T00:13:23;11.93;;;9.67;;
18999;SDS011;9633;50.980;13.850;2022-09-13T00:14:56;10.87;;;9.87;;
18999;SDS011;9633;50.980;13.850;2022-09-13T00:16:30;11.43;;;9.90;;
18999;SDS011;9633;50.980;13.850;2022-09-13T00:18:03;12.77;;;11.20;;
18999;SDS011;9633;50.980;13.850;2022-09-13T00:19:37;12.97;;;11.60;;
18999;SDS011;9633;50.980;13.850;2022-09-13T00:21:11;12.03;;;10.83;;
18999;SDS011;9633;50.980;13.850;2022-09-13T00:22:45;12.57;;;11.03;;
18999;SDS011;9633;50.980;13.850;2022-09-13T00:24:18;12.63;;;11.33;;
18999;SDS011;9633;50.980;13.850;2022-09-13T00:25:51;13.40;;;11.77;;
18999;SDS011;9633;50.980;13.850;2022-09-13T00:27:25;12.80;;;11.50;;
18999;SDS011;9633;50.980;13.850;2022-09-13T00:28:58;12.73;;;11.47;;
18999;SDS011;9633;50.980;13.850;2022-09-13T00:30:32;13.67;;;11.70;;
18999;SDS011;9633;50.980;13.850;2022-09-13T00:32:04;12.83;;;11.10;;
18999;SDS011;9633;50.980;13.850;2022-09-13T00:33:38;13.10;;;10.90;;
18999;SDS011;9633;50.980;13.850;2022-09-13T00:35:12;11.90;;;10.67;;
18999;SDS011;9633;50.980;13.850;2022-09-13T00:36:45;13.20;;;11.23;;
18999;SDS011;9633;50.980;13.850;2022-09-13T00:38:18;12.47;;;11.27;;
18999;SDS011;9633;50.980;13.850;2022-09-13T00:39:51;13.00;;;11.37;;
18999;SDS011;9633;50.980;13.850;2022-09-13T00:41:24;11.83;;;9.97;;
18999;SDS011;9633;50.980;13.850;2022-09-13T00:42:57;11.00;;;9.90;;
18999;SDS011;9633;50.980;13.850;2022-09-13T00:44:51;11.60;;;10.40;;
18999;SDS011;9633;50.980;13.850;2022-09-13T00:46:28;12.50;;;11.20;;
18999;SDS011;9633;50.980;13.850;2022-09-13T00:48:05;13.53;;;10.73;;
18999;SDS011;9633;50.980;13.850;2022-09-13T00:49:39;11.43;;;10.33;;
18999;SDS011;9633;50.980;13.850;2022-09-13T00:51:16;12.23;;;11.00;;
18999;SDS011;9633;50.980;13.850;2022-09-13T00:52:50;13.07;;;10.63;;
18999;SDS011;9633;50.980;13.850;2022-09-13T00:54:25;12.67;;;9.57;;
18999;SDS011;9633;50.980;13.850;2022-09-13T00:55:59;12.37;;;10.67;;
18999;SDS011;9633;50.980;13.850;2022-09-13T00:57:34;14.00;;;11.23;;
18999;SDS011;9633;50.980;13.850;2022-09-13T00:59:10;11.77;;;10.67;;
18999;SDS011;9633;50.980;13.850;2022-09-13T01:00:45;11.60;;;10.33;;
18999;SDS011;9633;50.980;13.850;2022-09-13T01:02:19;12.50;;;10.50;;
18999;SDS011;9633;50.980;13.850;2022-09-13T01:03:53;11.93;;;10.60;;
18999;SDS011;9633;50.980;13.850;2022-09-13T01:05:29;12.33;;;10.87;;
18999;SDS011;9633;50.980;13.850;2022-09-13T01:07:05;14.17;;;11.23;;
18999;SDS011;9633;50.980;13.850;2022-09-13T01:08:40;12.90;;;11.60;;
18999;SDS011;9633;50.980;13.850;2022-09-13T01:10:14;12.13;;;10.90;;
18999;SDS011;9633;50.980;13.850;2022-09-13T01:11:48;13.33;;;11.30;;
18999;SDS011;9633;50.980;13.850;2022-09-13T01:13:26;12.67;;;11.40;;
18999;SDS011;9633;50.980;13.850;2022-09-13T01:15:02;12.30;;;11.10;;
18999;SDS011;9633;50.980;13.850;2022-09-13T01:16:36;12.83;;;11.20;;
18999;SDS011;9633;50.980;13.850;2022-09-13T01:18:10;12.80;;;10.80;;
18999;SDS011;9633;50.980;13.850;2022-09-13T01:19:43;12.97;;;11.63;;
18999;SDS011;9633;50.980;13.850;2022-09-13T01:21:28;13.10;;;11.80;;
18999;SDS011;9633;50.980;13.850;2022-09-13T01:23:16;13.17;;;11.73;;
18999;SDS011;9633;50.980;13.850;2022-09-13T01:25:09;13.80;;;11.87;;
18999;SDS011;9633;50.980;13.850;2022-09-13T01:28:59;13.40;;;10.90;;
18999;SDS011;9633;50.980;13.850;2022-09-13T01:30:39;12.10;;;10.90;;
18999;SDS011;9633;50.980;13.850;2022-09-13T01:32:15;12.23;;;10.70;;
18999;SDS011;9633;50.980;13.850;2022-09-13T01:33:54;11.37;;;10.33;;
18999;SDS011;9633;50.980;13.850;2022-09-13T01:35:31;12.23;;;11.03;;
18999;SDS011;9633;50.980;13.850;2022-09-13T01:37:12;12.10;;;10.90;;
18999;SDS011;9633;50.980;13.850;2022-09-13T01:38:52;12.00;;;10.80;;
18999;SDS011;9633;50.980;13.850;2022-09-13T01:40:31;15.17;;;10.90;;
18999;SDS011;9633;50.980;13.850;2022-09-13T01:42:08;12.10;;;10.90;;
18999;SDS011;9633;50.980;13.850;2022-09-13T01:43:48;12.47;;;11.00;;
18999;SDS011;9633;50.980;13.850;2022-09-13T01:45:27;12.37;;;11.00;;
18999;SDS011;9633;50.980;13.850;2022-09-13T01:47:06;12.20;;;10.90;;
18999;SDS011;9633;50.980;13.850;2022-09-13T01:48:46;22.73;;;11.13;;
18999;SDS011;9633;50.980;13.850;2022-09-13T01:50:28;12.53;;;10.63;;
18999;SDS011;9633;50.980;13.850;2022-09-13T01:52:07;12.63;;;10.60;;
18999;SDS011;9633;50.980;13.850;2022-09-13T01:53:45;13.90;;;10.83;;
18999;SDS011;9633;50.980;13.850;2022-09-13T01:55:24;11.40;;;10.30;;
18999;SDS011;9633;50.980;13.850;2022-09-13T01:56:59;11.97;;;10.77;;
18999;SDS011;9633;50.980;13.850;2022-09-13T01:58:36;11.30;;;10.20;;
18999;SDS011;9633;50.980;13.850;2022-09-13T02:00:11;11.67;;;10.47;;
18999;SDS011;9633;50.980;13.850;2022-09-13T02:01:45;12.70;;;10.30;;
18999;SDS011;9633;50.980;13.850;2022-09-13T02:03:24;12.47;;;10.13;;
18999;SDS011;9633;50.980;13.850;2022-09-13T02:05:01;11.33;;;10.23;;
18999;SDS011;9633;50.980;13.850;2022-09-13T02:06:37;13.27;;;10.43;;
18999;SDS011;9633;50.980;13.850;2022-09-13T02:08:14;12.03;;;10.67;;
18999;SDS011;9633;50.980;13.850;2022-09-13T02:09:49;13.33;;;10.23;;
18999;SDS011;9633;50.980;13.850;2022-09-13T02:11:24;11.93;;;10.80;;
18999;SDS011;9633;50.980;13.850;2022-09-13T02:12:57;13.77;;;10.70;;
18999;SDS011;9633;50.980;13.850;2022-09-13T02:14:32;12.23;;;10.50;;
18999;SDS011;9633;50.980;13.850;2022-09-13T02:16:07;11.83;;;10.53;;
18999;SDS011;9633;50.980;13.850;2022-09-13T02:17:44;11.33;;;10.07;;
18999;SDS011;9633;50.980;13.850;2022-09-13T02:19:23;11.10;;;9.93;;
18999;SDS011;9633;50.980;13.850;2022-09-13T02:20:58;12.20;;;9.73;;
18999;SDS011;9633;50.980;13.850;2022-09-13T02:22:33;11.67;;;10.10;;
18999;SDS011;9633;50.980;13.850;2022-09-13T02:24:08;11.83;;;10.23;;
18999;SDS011;9633;50.980;13.850;2022-09-13T02:25:42;11.57;;;10.37;;
18999;SDS011;9633;50.980;13.850;2022-09-13T02:27:18;11.03;;;10.03;;
18999;SDS011;9633;50.980;13.850;2022-09-13T02:28:53;12.00;;;10.63;;
18999;SDS011;9633;50.980;13.850;2022-09-13T02:30:28;11.43;;;10.23;;
18999;SDS011;9633;50.980;13.850;2022-09-13T02:32:05;11.67;;;10.53;;
18999;SDS011;9633;50.980;13.850;2022-09-13T02:33:41;11.50;;;10.07;;
18999;SDS011;9633;50.980;13.850;2022-09-13T02:35:18;11.80;;;10.60;;
18999;SDS011;9633;50.980;13.850;2022-09-13T02:36:52;13.03;;;10.63;;
18999;SDS011;9633;50.980;13.850;2022-09-13T02:38:27;11.23;;;9.93;;
18999;SDS011;9633;50.980;13.850;2022-09-13T02:40:03;11.97;;;10.43;;
18999;SDS011;9633;50.980;13.850;2022-09-13T02:41:40;12.57;;;11.27;;
18999;SDS011;9633;50.980;13.850;2022-09-13T02:43:13;12.63;;;11.17;;
18999;SDS011;9633;50.980;13.850;2022-09-13T02:44:49;12.83;;;11.10;;
18999;SDS011;9633;50.980;13.850;2022-09-13T02:46:26;11.57;;;10.47;;
18999;SDS011;9633;50.980;13.850;2022-09-13T02:48:03;12.00;;;10.80;;
18999;SDS011;9633;50.980;13.850;2022-09-13T02:49:41;13.83;;;11.23;;
18999;SDS011;9633;50.980;13.850;2022-09-13T02:51:19;12.13;;;10.57;;
18999;SDS011;9633;50.980;13.850;2022-09-13T02:52:58;13.37;;;11.63;;
18999;SDS011;9633;50.980;13.850;2022-09-13T02:54:35;11.60;;;10.40;;
18999;SDS011;9633;50.980;13.850;2022-09-13T02:56:14;12.47;;;10.60;;
18999;SDS011;9633;50.980;13.850;2022-09-13T02:57:58;11.80;;;10.57;;
18999;SDS011;9633;50.980;13.850;2022-09-13T02:59:32;11.27;;;10.10;;
18999;SDS011;9633;50.980;13.850;2022-09-13T03:01:07;12.57;;;10.70;;
18999;SDS011;9633;50.980;13.850;2022-09-13T03:02:40;12.00;;;10.80;;
18999;SDS011;9633;50.980;13.850;2022-09-13T03:04:14;12.23;;;10.93;;
18999;SDS011;9633;50.980;13.850;2022-09-13T03:05:47;11.93;;;10.60;;
18999;SDS011;9633;50.980;13.850;2022-09-13T03:07:22;12.13;;;10.93;;
18999;SDS011;9633;50.980;13.850;2022-09-13T03:08:56;14.47;;;10.77;;
18999;SDS011;9633;50.980;13.850;2022-09-13T03:10:31;12.07;;;10.87;;
18999;SDS011;9633;50.980;13.850;2022-09-13T03:12:12;11.13;;;9.93;;
18999;SDS011;9633;50.980;13.850;2022-09-13T03:13:51;11.30;;;10.20;;
18999;SDS011;9633;50.980;13.850;2022-09-13T03:15:29;12.13;;;10.10;;
18999;SDS011;9633;50.980;13.850;2022-09-13T03:17:06;11.87;;;10.63;;
18999;SDS011;9633;50.980;13.850;2022-09-13T03:18:46;11.33;;;10.17;;
18999;SDS011;9633;50.980;13.850;2022-09-13T03:20:23;13.43;;;11.43;;
18999;SDS011;9633;50.980;13.850;2022-09-13T03:22:01;11.27;;;10.13;;
18999;SDS011;9633;50.980;13.850;2022-09-13T03:23:43;11.47;;;10.27;;
18999;SDS011;9633;50.980;13.850;2022-09-13T03:25:19;12.00;;;10.80;;
18999;SDS011;9633;50.980;13.850;2022-09-13T03:27:02;11.57;;;10.47;;
18999;SDS011;9633;50.980;13.850;2022-09-13T03:28:37;12.10;;;10.73;;
18999;SDS011;9633;50.980;13.850;2022-09-13T03:30:13;11.80;;;10.33;;
18999;SDS011;9633;50.980;13.850;2022-09-13T03:31:48;11.97;;;10.77;;
18999;SDS011;9633;50.980;13.850;2022-09-13T03:33:25;11.23;;;10.03;;
18999;SDS011;9633;50.980;13.850;2022-09-13T03:35:03;11.57;;;10.37;;
18999;SDS011;9633;50.980;13.850;2022-09-13T03:36:41;13.73;;;10.40;;
18999;SDS011;9633;50.980;13.850;2022-09-13T03:38:16;12.10;;;10.83;;
18999;SDS011;9633;50.980;13.850;2022-09-13T03:39:53;13.83;;;11.07;;
18999;SDS011;9633;50.980;13.850;2022-09-13T03:41:29;14.10;;;10.73;;
18999;SDS011;9633;50.980;13.850;2022-09-13T03:43:05;11.03;;;9.93;;
18999;SDS011;9633;50.980;13.850;2022-09-13T03:44:40;10.80;;;9.70;;
18999;SDS011;9633;50.980;13.850;2022-09-13T03:46:15;11.33;;;10.13;;
18999;SDS011;9633;50.980;13.850;2022-09-13T03:47:49;11.20;;;10.10;;
18999;SDS011;9633;50.980;13.850;2022-09-13T03:49:24;11.07;;;9.97;;
18999;SDS011;9633;50.980;13.850;2022-09-13T03:50:58;11.40;;;10.13;;
18999;SDS011;9633;50.980;13.850;2022-09-13T03:52:32;12.47;;;10.30;;
18999;SDS011;9633;50.980;13.850;2022-09-13T03:54:07;11.50;;;10.30;;
18999;SDS011;9633;50.980;13.850;2022-09-13T03:55:44;10.70;;;9.60;;
18999;SDS011;9633;50.980;13.850;2022-09-13T03:57:18;11.37;;;10.17;;
18999;SDS011;9633;50.980;13.850;2022-09-13T03:58:52;12.70;;;9.93;;
18999;SDS011;9633;50.980;13.850;2022-09-13T04:00:25;10.63;;;9.63;;
18999;SDS011;9633;50.980;13.850;2022-09-13T04:01:59;11.57;;;10.07;;
18999;SDS011;9633;50.980;13.850;2022-09-13T04:03:33;12.13;;;10.80;;
18999;SDS011;9633;50.980;13.850;2022-09-13T04:05:06;13.53;;;9.83;;
18999;SDS011;9633;50.980;13.850;2022-09-13T04:06:40;11.03;;;9.87;;
18999;SDS011;9633;50.980;13.850;2022-09-13T04:08:13;11.20;;;10.00;;
18999;SDS011;9633;50.980;13.850;2022-09-13T04:09:46;11.00;;;9.90;;
18999;SDS011;9633;50.980;13.850;2022-09-13T04:11:22;11.27;;;9.90;;
18999;SDS011;9633;50.980;13.850;2022-09-13T04:12:56;11.73;;;9.70;;
18999;SDS011;9633;50.980;13.850;2022-09-13T04:14:30;11.60;;;9.60;;
18999;SDS011;9633;50.980;13.850;2022-09-13T04:16:04;10.50;;;9.37;;
18999;SDS011;9633;50.980;13.850;2022-09-13T04:17:38;11.50;;;10.33;;
18999;SDS011;9633;50.980;13.850;2022-09-13T04:19:11;11.70;;;10.50;;
18999;SDS011;9633;50.980;13.850;2022-09-13T04:20:51;13.17;;;10.37;;
18999;SDS011;9633;50.980;13.850;2022-09-13T04:22:25;12.23;;;10.90;;
18999;SDS011;9633;50.980;13.850;2022-09-13T04:23:58;11.53;;;10.10;;
18999;SDS011;9633;50.980;13.850;2022-09-13T04:25:32;11.60;;;10.40;;
18999;SDS011;9633;50.980;13.850;2022-09-13T04:27:06;11.90;;;10.53;;
18999;SDS011;9633;50.980;13.850;2022-09-13T04:28:40;12.07;;;10.87;;
18999;SDS011;9633;50.980;13.850;2022-09-13T04:30:13;12.30;;;10.77;;
18999;SDS011;9633;50.980;13.850;2022-09-13T04:31:47;11.73;;;10.50;;
18999;SDS011;9633;50.980;13.850;2022-09-13T04:33:21;12.27;;;10.60;;
18999;SDS011;9633;50.980;13.850;2022-09-13T04:34:54;12.27;;;10.57;;
18999;SDS011;9633;50.980;13.850;2022-09-13T04:36:28;12.10;;;10.57;;
18999;SDS011;9633;50.980;13.850;2022-09-13T04:38:02;11.50;;;10.40;;
18999;SDS011;9633;50.980;13.850;2022-09-13T04:39:35;12.40;;;11.10;;
18999;SDS011;9633;50.980;13.850;2022-09-13T04:41:08;12.53;;;11.17;;
18999;SDS011;9633;50.980;13.850;2022-09-13T04:42:43;13.37;;;10.83;;
18999;SDS011;9633;50.980;13.850;2022-09-13T04:44:17;15.27;;;10.97;;
18999;SDS011;9633;50.980;13.850;2022-09-13T04:45:50;12.27;;;10.97;;
18999;SDS011;9633;50.980;13.850;2022-09-13T04:47:24;12.50;;;11.10;;
18999;SDS011;9633;50.980;13.850;2022-09-13T04:48:58;12.53;;;10.70;;
18999;SDS011;9633;50.980;13.850;2022-09-13T04:50:31;14.50;;;11.53;;
18999;SDS011;9633;50.980;13.850;2022-09-13T04:52:05;11.80;;;10.60;;
18999;SDS011;9633;50.980;13.850;2022-09-13T04:53:39;12.37;;;11.07;;
18999;SDS011;9633;50.980;13.850;2022-09-13T04:55:11;13.27;;;10.63;;
18999;SDS011;9633;50.980;13.850;2022-09-13T04:56:45;11.87;;;10.40;;
18999;SDS011;9633;50.980;13.850;2022-09-13T04:58:21;10.83;;;9.73;;
18999;SDS011;9633;50.980;13.850;2022-09-13T04:59:54;11.30;;;10.20;;
18999;SDS011;9633;50.980;13.850;2022-09-13T05:01:28;11.33;;;10.23;;
18999;SDS011;9633;50.980;13.850;2022-09-13T05:03:02;11.33;;;10.13;;
18999;SDS011;9633;50.980;13.850;2022-09-13T05:04:35;12.80;;;11.23;;
18999;SDS011;9633;50.980;13.850;2022-09-13T05:06:09;11.53;;;10.27;;
18999;SDS011;9633;50.980;13.850;2022-09-13T05:07:42;11.57;;;10.30;;
18999;SDS011;9633;50.980;13.850;2022-09-13T05:09:16;11.73;;;10.50;;
18999;SDS011;9633;50.980;13.850;2022-09-13T05:10:49;12.87;;;9.20;;
18999;SDS011;9633;50.980;13.850;2022-09-13T05:12:23;10.93;;;9.63;;
18999;SDS011;9633;50.980;13.850;2022-09-13T05:13:58;11.40;;;9.43;;
18999;SDS011;9633;50.980;13.850;2022-09-13T05:15:31;9.23;;;8.33;;
18999;SDS011;9633;50.980;13.850;2022-09-13T05:17:04;9.07;;;8.10;;
18999;SDS011;9633;50.980;13.850;2022-09-13T05:18:37;9.60;;;8.43;;
18999;SDS011;9633;50.980;13.850;2022-09-13T05:20:15;9.90;;;7.90;;
18999;SDS011;9633;50.980;13.850;2022-09-13T05:21:48;8.97;;;7.90;;
18999;SDS011;9633;50.980;13.850;2022-09-13T05:23:22;8.77;;;7.57;;
18999;SDS011;9633;50.980;13.850;2022-09-13T05:24:56;7.53;;;6.77;;
18999;SDS011;9633;50.980;13.850;2022-09-13T05:26:29;7.93;;;6.53;;
18999;SDS011;9633;50.980;13.850;2022-09-13T05:28:03;7.70;;;6.87;;
18999;SDS011;9633;50.980;13.850;2022-09-13T05:29:38;7.23;;;6.53;;
18999;SDS011;9633;50.980;13.850;2022-09-13T05:31:12;6.60;;;5.93;;
18999;SDS011;9633;50.980;13.850;2022-09-13T05:32:47;9.63;;;6.37;;
18999;SDS011;9633;50.980;13.850;2022-09-13T05:34:20;6.50;;;5.77;;
18999;SDS011;9633;50.980;13.850;2022-09-13T05:35:53;8.30;;;6.53;;
18999;SDS011;9633;50.980;13.850;2022-09-13T05:37:27;7.13;;;5.60;;
18999;SDS011;9633;50.980;13.850;2022-09-13T05:39:01;7.77;;;5.40;;
18999;SDS011;9633;50.980;13.850;2022-09-13T05:40:55;7.33;;;5.20;;
18999;SDS011;9633;50.980;13.850;2022-09-13T05:42:29;7.63;;;4.83;;
18999;SDS011;9633;50.980;13.850;2022-09-13T05:44:02;5.80;;;5.20;;
18999;SDS011;9633;50.980;13.850;2022-09-13T05:45:45;6.37;;;5.33;;
18999;SDS011;9633;50.980;13.850;2022-09-13T05:47:18;6.47;;;5.33;;
18999;SDS011;9633;50.980;13.850;2022-09-13T05:48:52;6.50;;;5.60;;
18999;SDS011;9633;50.980;13.850;2022-09-13T05:50:25;7.17;;;5.73;;
18999;SDS011;9633;50.980;13.850;2022-09-13T05:52:18;7.00;;;5.33;;
18999;SDS011;9633;50.980;13.850;2022-09-13T05:53:52;6.00;;;5.20;;
18999;SDS011;9633;50.980;13.850;2022-09-13T05:55:26;8.37;;;5.63;;
18999;SDS011;9633;50.980;13.850;2022-09-13T05:56:58;6.63;;;5.30;;
18999;SDS011;9633;50.980;13.850;2022-09-13T05:58:32;5.63;;;5.13;;
18999;SDS011;9633;50.980;13.850;2022-09-13T06:00:06;7.20;;;5.40;;
18999;SDS011;9633;50.980;13.850;2022-09-13T06:01:44;6.20;;;5.60;;
18999;SDS011;9633;50.980;13.850;2022-09-13T06:03:18;6.87;;;5.13;;
18999;SDS011;9633;50.980;13.850;2022-09-13T06:04:52;6.47;;;5.40;;
18999;SDS011;9633;50.980;13.850;2022-09-13T06:06:25;7.43;;;5.40;;
18999;SDS011;9633;50.980;13.850;2022-09-13T06:07:59;5.53;;;5.03;;
18999;SDS011;9633;50.980;13.850;2022-09-13T06:09:32;5.10;;;4.60;;
18999;SDS011;9633;50.980;13.850;2022-09-13T06:11:06;7.70;;;5.63;;
18999;SDS011;9633;50.980;13.850;2022-09-13T06:12:40;5.87;;;5.10;;
18999;SDS011;9633;50.980;13.850;2022-09-13T06:14:13;7.10;;;5.50;;
18999;SDS011;9633;50.980;13.850;2022-09-13T06:15:47;5.80;;;5.30;;
18999;SDS011;9633;50.980;13.850;2022-09-13T06:17:20;5.53;;;5.00;;
18999;SDS011;9633;50.980;13.850;2022-09-13T06:18:54;5.87;;;4.83;;
18999;SDS011;9633;50.980;13.850;2022-09-13T06:20:27;5.27;;;4.70;;
18999;SDS011;9633;50.980;13.850;2022-09-13T06:22:01;5.13;;;4.60;;
18999;SDS011;9633;50.980;13.850;2022-09-13T06:23:34;8.00;;;4.73;;
18999;SDS011;9633;50.980;13.850;2022-09-13T06:25:08;6.00;;;4.90;;
18999;SDS011;9633;50.980;13.850;2022-09-13T06:26:41;5.63;;;5.00;;
18999;SDS011;9633;50.980;13.850;2022-09-13T06:28:15;5.97;;;4.90;;
18999;SDS011;9633;50.980;13.850;2022-09-13T06:29:51;6.43;;;5.00;;
18999;SDS011;9633;50.980;13.850;2022-09-13T06:31:26;5.67;;;5.03;;
18999;SDS011;9633;50.980;13.850;2022-09-13T06:33:01;5.50;;;5.00;;
18999;SDS011;9633;50.980;13.850;2022-09-13T06:34:35;4.90;;;4.40;;
18999;SDS011;9633;50.980;13.850;2022-09-13T06:36:08;6.73;;;4.97;;
18999;SDS011;9633;50.980;13.850;2022-09-13T06:37:42;5.57;;;4.83;;
18999;SDS011;9633;50.980;13.850;2022-09-13T06:39:16;6.30;;;4.80;;
18999;SDS011;9633;50.980;13.850;2022-09-13T06:40:57;8.17;;;4.97;;
18999;SDS011;9633;50.980;13.850;2022-09-13T06:42:32;5.07;;;4.50;;
18999;SDS011;9633;50.980;13.850;2022-09-13T06:44:05;7.67;;;5.23;;
18999;SDS011;9633;50.980;13.850;2022-09-13T06:45:39;6.03;;;5.43;;
18999;SDS011;9633;50.980;13.850;2022-09-13T06:47:12;8.07;;;5.27;;
18999;SDS011;9633;50.980;13.850;2022-09-13T06:48:47;7.23;;;5.40;;
18999;SDS011;9633;50.980;13.850;2022-09-13T06:50:20;5.80;;;5.17;;
18999;SDS011;9633;50.980;13.850;2022-09-13T06:51:54;6.23;;;5.20;;
18999;SDS011;9633;50.980;13.850;2022-09-13T06:53:27;6.03;;;5.43;;
18999;SDS011;9633;50.980;13.850;2022-09-13T06:55:01;7.00;;;5.77;;
18999;SDS011;9633;50.980;13.850;2022-09-13T06:56:35;6.03;;;5.23;;
18999;SDS011;9633;50.980;13.850;2022-09-13T06:58:09;6.20;;;5.50;;
18999;SDS011;9633;50.980;13.850;2022-09-13T06:59:43;5.90;;;5.30;;
18999;SDS011;9633;50.980;13.850;2022-09-13T07:01:17;8.23;;;5.50;;
18999;SDS011;9633;50.980;13.850;2022-09-13T07:02:50;6.53;;;5.10;;
18999;SDS011;9633;50.980;13.850;2022-09-13T07:04:25;5.83;;;4.90;;
18999;SDS011;9633;50.980;13.850;2022-09-13T07:06:05;7.37;;;5.43;;
18999;SDS011;9633;50.980;13.850;2022-09-13T07:07:37;8.00;;;4.93;;
18999;SDS011;9633;50.980;13.850;2022-09-13T07:09:11;5.23;;;4.80;;
18999;SDS011;9633;50.980;13.850;2022-09-13T07:10:45;6.23;;;5.27;;
18999;SDS011;9633;50.980;13.850;2022-09-13T07:12:19;6.70;;;5.60;;
18999;SDS011;9633;50.980;13.850;2022-09-13T07:13:53;6.97;;;5.40;;
18999;SDS011;9633;50.980;13.850;2022-09-13T07:15:26;10.83;;;5.03;;
18999;SDS011;9633;50.980;13.850;2022-09-13T07:17:00;6.07;;;5.47;;
18999;SDS011;9633;50.980;13.850;2022-09-13T07:18:34;5.40;;;4.87;;
18999;SDS011;9633;50.980;13.850;2022-09-13T07:20:09;7.03;;;5.53;;
18999;SDS011;9633;50.980;13.850;2022-09-13T07:21:42;5.90;;;5.07;;
18999;SDS011;9633;50.980;13.850;2022-09-13T07:23:16;5.87;;;4.93;;
18999;SDS011;9633;50.980;13.850;2022-09-13T07:24:49;5.90;;;5.40;;
18999;SDS011;9633;50.980;13.850;2022-09-13T07:26:23;6.13;;;5.13;;
18999;SDS011;9633;50.980;13.850;2022-09-13T07:27:57;5.73;;;5.23;;
18999;SDS011;9633;50.980;13.850;2022-09-13T07:29:31;5.87;;;5.37;;
18999;SDS011;9633;50.980;13.850;2022-09-13T07:31:05;5.70;;;5.20;;
18999;SDS011;9633;50.980;13.850;2022-09-13T07:32:38;6.43;;;4.80;;
18999;SDS011;9633;50.980;13.850;2022-09-13T07:34:13;6.57;;;5.80;;
18999;SDS011;9633;50.980;13.850;2022-09-13T07:35:54;8.23;;;5.30;;
18999;SDS011;9633;50.980;13.850;2022-09-13T07:37:27;5.83;;;5.20;;
18999;SDS011;9633;50.980;13.850;2022-09-13T07:39:01;6.37;;;5.37;;
18999;SDS011;9633;50.980;13.850;2022-09-13T07:40:35;6.17;;;5.57;;
18999;SDS011;9633;50.980;13.850;2022-09-13T07:42:08;7.60;;;5.47;;
18999;SDS011;9633;50.980;13.850;2022-09-13T07:43:42;7.40;;;5.17;;
18999;SDS011;9633;50.980;13.850;2022-09-13T07:45:15;6.70;;;5.35;;
18999;SDS011;9633;50.980;13.850;2022-09-13T07:46:49;6.63;;;4.90;;
18999;SDS011;9633;50.980;13.850;2022-09-13T07:48:22;5.60;;;5.10;;
18999;SDS011;9633;50.980;13.850;2022-09-13T07:49:55;6.13;;;5.40;;
18999;SDS011;9633;50.980;13.850;2022-09-13T07:51:31;5.57;;;5.07;;
18999;SDS011;9633;50.980;13.850;2022-09-13T07:53:04;5.80;;;5.20;;
18999;SDS011;9633;50.980;13.850;2022-09-13T07:54:38;6.37;;;5.40;;
18999;SDS011;9633;50.980;13.850;2022-09-13T07:56:12;7.10;;;5.03;;
18999;SDS011;9633;50.980;13.850;2022-09-13T07:57:46;6.53;;;5.63;;
18999;SDS011;9633;50.980;13.850;2022-09-13T07:59:19;7.17;;;5.40;;
18999;SDS011;9633;50.980;13.850;2022-09-13T08:01:04;7.53;;;5.57;;
18999;SDS011;9633;50.980;13.850;2022-09-13T08:02:36;6.13;;;5.63;;
18999;SDS011;9633;50.980;13.850;2022-09-13T08:04:11;6.00;;;5.40;;
18999;SDS011;9633;50.980;13.850;2022-09-13T08:05:44;6.40;;;5.87;;
18999;SDS011;9633;50.980;13.850;2022-09-13T08:07:19;6.17;;;5.57;;
18999;SDS011;9633;50.980;13.850;2022-09-13T08:08:53;6.70;;;6.00;;
18999;SDS011;9633;50.980;13.850;2022-09-13T08:10:26;7.13;;;5.73;;
18999;SDS011;9633;50.980;13.850;2022-09-13T08:12:00;6.60;;;5.77;;
18999;SDS011;9633;50.980;13.850;2022-09-13T08:13:33;7.57;;;6.50;;
18999;SDS011;9633;50.980;13.850;2022-09-13T08:15:06;7.63;;;6.30;;
18999;SDS011;9633;50.980;13.850;2022-09-13T08:16:39;7.43;;;6.37;;
18999;SDS011;9633;50.980;13.850;2022-09-13T08:18:13;6.27;;;5.77;;
18999;SDS011;9633;50.980;13.850;2022-09-13T08:19:46;7.47;;;6.73;;
18999;SDS011;9633;50.980;13.850;2022-09-13T08:21:20;8.17;;;7.23;;
18999;SDS011;9633;50.980;13.850;2022-09-13T08:22:55;7.70;;;7.00;;
18999;SDS011;9633;50.980;13.850;2022-09-13T08:24:28;7.13;;;6.50;;
18999;SDS011;9633;50.980;13.850;2022-09-13T08:26:02;7.90;;;7.10;;
18999;SDS011;9633;50.980;13.850;2022-09-13T08:27:37;7.53;;;6.67;;
18999;SDS011;9633;50.980;13.850;2022-09-13T08:29:11;7.83;;;7.10;;
18999;SDS011;9633;50.980;13.850;2022-09-13T08:30:45;7.70;;;6.90;;
18999;SDS011;9633;50.980;13.850;2022-09-13T08:32:18;8.63;;;6.80;;
18999;SDS011;9633;50.980;13.850;2022-09-13T08:33:52;7.77;;;7.07;;
18999;SDS011;9633;50.980;13.850;2022-09-13T08:35:26;12.53;;;7.10;;
18999;SDS011;9633;50.980;13.850;2022-09-13T08:36:59;7.33;;;6.47;;
18999;SDS011;9633;50.980;13.850;2022-09-13T08:38:34;8.07;;;6.57;;
18999;SDS011;9633;50.980;13.850;2022-09-13T08:40:08;7.40;;;6.60;;
18999;SDS011;9633;50.980;13.850;2022-09-13T08:41:50;7.40;;;6.60;;
18999;SDS011;9633;50.980;13.850;2022-09-13T08:43:31;7.37;;;6.67;;
18999;SDS011;9633;50.980;13.850;2022-09-13T08:45:06;7.00;;;6.40;;
18999;SDS011;9633;50.980;13.850;2022-09-13T08:46:40;7.60;;;6.80;;
18999;SDS011;9633;50.980;13.850;2022-09-13T08:48:17;8.97;;;6.57;;
18999;SDS011;9633;50.980;13.850;2022-09-13T08:49:54;7.07;;;6.40;;
18999;SDS011;9633;50.980;13.850;2022-09-13T08:51:32;8.43;;;7.10;;
18999;SDS011;9633;50.980;13.850;2022-09-13T08:53:11;6.53;;;5.93;;
18999;SDS011;9633;50.980;13.850;2022-09-13T08:54:49;8.47;;;6.70;;
18999;SDS011;9633;50.980;13.850;2022-09-13T08:56:31;7.50;;;6.80;;
18999;SDS011;9633;50.980;13.850;2022-09-13T08:58:12;8.53;;;7.13;;
18999;SDS011;9633;50.980;13.850;2022-09-13T08:59:51;9.00;;;7.03;;
18999;SDS011;9633;50.980;13.850;2022-09-13T09:01:29;9.00;;;7.10;;
18999;SDS011;9633;50.980;13.850;2022-09-13T09:03:10;7.47;;;6.77;;
18999;SDS011;9633;50.980;13.850;2022-09-13T09:04:47;7.80;;;7.03;;
18999;SDS011;9633;50.980;13.850;2022-09-13T09:06:23;7.30;;;6.60;;
18999;SDS011;9633;50.980;13.850;2022-09-13T09:07:57;9.37;;;7.07;;
18999;SDS011;9633;50.980;13.850;2022-09-13T09:09:30;8.13;;;7.40;;
18999;SDS011;9633;50.980;13.850;2022-09-13T09:11:06;7.50;;;6.80;;
18999;SDS011;9633;50.980;13.850;2022-09-13T09:12:42;8.27;;;7.40;;
18999;SDS011;9633;50.980;13.850;2022-09-13T09:14:19;7.83;;;7.10;;
18999;SDS011;9633;50.980;13.850;2022-09-13T09:15:57;8.00;;;7.20;;
18999;SDS011;9633;50.980;13.850;2022-09-13T09:17:34;8.37;;;7.23;;
18999;SDS011;9633;50.980;13.850;2022-09-13T09:19:14;9.03;;;7.23;;
18999;SDS011;9633;50.980;13.850;2022-09-13T09:20:49;8.53;;;7.40;;
18999;SDS011;9633;50.980;13.850;2022-09-13T09:22:33;8.43;;;7.53;;
18999;SDS011;9633;50.980;13.850;2022-09-13T09:24:08;9.63;;;7.97;;
18999;SDS011;9633;50.980;13.850;2022-09-13T09:25:44;9.37;;;7.17;;
18999;SDS011;9633;50.980;13.850;2022-09-13T09:27:19;8.97;;;7.77;;